createdAt,value
2022-12-12T00:00:15.283Z,-1.43
2022-12-12T00:02:42.177Z,-1.28
2022-12-12T00:05:13.891Z,-1.35
2022-12-12T00:07:40.800Z,-1.32
2022-12-12T00:10:08.896Z,-1.37
2022-12-12T00:12:35.996Z,-1.07
2022-12-12T00:15:04.063Z,-1.08
2022-12-12T00:17:30.714Z,-1.22
2022-12-12T00:19:57.337Z,-1.13
2022-12-12T00:22:24.015Z,-1.27
2022-12-12T00:24:50.638Z,-1.03
2022-12-12T00:27:17.538Z,-1.38
2022-12-12T00:29:44.176Z,-0.94
2022-12-12T00:32:10.811Z,-0.89
2022-12-12T00:34:37.610Z,-1.35
2022-12-12T00:37:04.237Z,-1.09
2022-12-12T00:39:30.911Z,-1.08
2022-12-12T00:41:57.594Z,-1.11
2022-12-12T00:44:24.232Z,-1.06
2022-12-12T00:46:51.042Z,-1.15
2022-12-12T00:49:17.787Z,-0.89
2022-12-12T00:51:44.417Z,-0.75
2022-12-12T00:54:12.062Z,-1.10
2022-12-12T00:56:40.441Z,-1.24
2022-12-12T00:59:07.251Z,-1.28
2022-12-12T01:01:35.632Z,-1.24
2022-12-12T01:04:02.864Z,-1.50
2022-12-12T01:06:29.622Z,-1.33
2022-12-12T01:08:56.517Z,-0.95
2022-12-12T01:11:23.522Z,-1.54
2022-12-12T01:13:54.866Z,-1.50
2022-12-12T01:16:22.565Z,-1.30
2022-12-12T01:18:49.670Z,-1.06
2022-12-12T01:21:19.934Z,-0.99
2022-12-12T01:23:47.447Z,-1.16
2022-12-12T01:26:18.475Z,-1.46
2022-12-12T01:28:45.815Z,-1.65
2022-12-12T01:31:13.894Z,-1.66
2022-12-12T01:33:41.628Z,-1.56
2022-12-12T01:36:08.259Z,-1.55
2022-12-12T01:38:35.008Z,-0.91
2022-12-12T01:41:01.671Z,-0.56
2022-12-12T01:43:28.903Z,-0.85
2022-12-12T01:46:31.021Z,-0.98
2022-12-12T01:49:01.460Z,-1.33
2022-12-12T01:51:30.004Z,-0.99
2022-12-12T01:54:10.324Z,-0.79
2022-12-12T01:56:39.831Z,-0.41
2022-12-12T01:59:11.151Z,-0.85
2022-12-12T02:01:40.063Z,-0.70
2022-12-12T02:04:09.164Z,-0.83
2022-12-12T02:06:35.882Z,-0.85
2022-12-12T02:09:08.039Z,-0.90
2022-12-12T02:11:41.360Z,-0.63
2022-12-12T02:14:08.128Z,-0.78
2022-12-12T02:17:08.235Z,-0.81
2022-12-12T02:19:54.493Z,-0.81
2022-12-12T02:22:39.766Z,-0.71
2022-12-12T02:25:27.915Z,-0.38
2022-12-12T02:28:24.833Z,-0.25
2022-12-12T02:31:13.009Z,-0.68
2022-12-12T02:33:57.846Z,-0.87
2022-12-12T02:36:44.861Z,-0.53
2022-12-12T02:39:46.839Z,-1.00
2022-12-12T02:42:42.405Z,-0.78
2022-12-12T02:45:48.320Z,-0.66
2022-12-12T02:48:36.002Z,-0.50
2022-12-12T02:51:08.530Z,0.14
2022-12-12T02:53:35.327Z,-0.08
2022-12-12T02:56:08.706Z,0.05
2022-12-12T02:58:38.333Z,-0.33
2022-12-12T03:01:27.016Z,-0.14
2022-12-12T03:04:04.147Z,-0.56
2022-12-12T03:06:40.908Z,-1.17
2022-12-12T03:09:27.658Z,-0.98
2022-12-12T03:12:09.793Z,-0.88
2022-12-12T03:14:54.930Z,-0.51
2022-12-12T03:17:48.037Z,-0.99
2022-12-12T03:20:21.829Z,-0.97
2022-12-12T03:23:03.226Z,-0.34
2022-12-12T03:25:58.242Z,-0.63
2022-12-12T03:28:52.446Z,-0.91
2022-12-12T03:31:25.482Z,-0.71
2022-12-12T03:34:01.952Z,-0.50
2022-12-12T03:36:39.024Z,-0.37
2022-12-12T03:39:15.667Z,-0.26
2022-12-12T03:41:51.851Z,-0.83
2022-12-12T03:44:41.128Z,-0.54
2022-12-12T03:47:15.783Z,-0.62
2022-12-12T03:49:57.086Z,-0.49
2022-12-12T03:52:29.550Z,-0.39
2022-12-12T03:55:07.360Z,-0.78
2022-12-12T03:57:52.271Z,-0.75
2022-12-12T04:00:19.240Z,-1.11
2022-12-12T04:02:56.966Z,-1.03
2022-12-12T04:05:43.092Z,-1.47
2022-12-12T04:08:15.366Z,-1.31
2022-12-12T04:10:48.327Z,-1.39
2022-12-12T04:14:06.826Z,-0.99
2022-12-12T04:16:51.618Z,-1.06
2022-12-12T04:19:56.437Z,-1.00
2022-12-12T04:22:28.315Z,-0.41
2022-12-12T04:25:07.077Z,-1.02
2022-12-12T04:27:48.702Z,-1.05
2022-12-12T04:30:17.213Z,-0.63
2022-12-12T04:32:58.246Z,-0.58
2022-12-12T04:35:44.217Z,-0.61
2022-12-12T04:38:17.999Z,-0.49
2022-12-12T04:40:51.124Z,-0.04
2022-12-12T04:43:33.015Z,-0.54
2022-12-12T04:46:07.970Z,0.40
2022-12-12T04:48:43.770Z,-0.33
2022-12-12T04:51:18.112Z,-0.20
2022-12-12T04:54:14.007Z,-0.13
2022-12-12T04:56:48.679Z,0.18
2022-12-12T04:59:15.484Z,-0.22
2022-12-12T05:02:08.046Z,0.58
2022-12-12T05:04:56.654Z,0.46
2022-12-12T05:07:44.714Z,0.57
2022-12-12T05:10:15.791Z,1.06
2022-12-12T05:12:48.312Z,1.28
2022-12-12T05:15:18.690Z,0.80
2022-12-12T05:17:48.722Z,0.92
2022-12-12T05:20:15.905Z,1.09
2022-12-12T05:22:42.728Z,1.39
2022-12-12T05:25:10.172Z,1.50
2022-12-12T05:27:37.108Z,1.02
2022-12-12T05:30:04.843Z,1.10
2022-12-12T05:32:31.467Z,1.41
2022-12-12T05:34:58.070Z,0.70
2022-12-12T05:37:24.721Z,0.87
2022-12-12T05:39:51.364Z,1.15
2022-12-12T05:42:18.124Z,1.33
2022-12-12T05:44:44.839Z,1.44
2022-12-12T05:47:11.496Z,1.08
2022-12-12T05:49:38.310Z,0.19
2022-12-12T05:52:05.028Z,0.22
2022-12-12T05:54:31.909Z,0.41
2022-12-12T05:56:58.667Z,0.26
2022-12-12T05:59:25.305Z,0.60
2022-12-12T06:01:51.917Z,0.46
2022-12-12T06:04:18.589Z,0.39
2022-12-12T06:06:45.805Z,0.81
2022-12-12T06:09:12.424Z,0.22
2022-12-12T06:11:39.339Z,-0.10
2022-12-12T06:14:06.016Z,-0.32
2022-12-12T06:16:32.716Z,0.38
2022-12-12T06:18:59.450Z,0.34
2022-12-12T06:21:26.188Z,0.48
2022-12-12T06:23:53.040Z,0.42
2022-12-12T06:26:23.791Z,0.93
2022-12-12T06:28:50.615Z,1.43
2022-12-12T06:31:17.436Z,1.64
2022-12-12T06:33:45.186Z,1.10
2022-12-12T06:36:23.555Z,1.46
2022-12-12T06:38:52.949Z,1.26
2022-12-12T06:41:20.475Z,1.73
2022-12-12T06:43:47.505Z,1.78
2022-12-12T06:46:21.103Z,1.82
2022-12-12T06:48:47.810Z,1.50
2022-12-12T06:51:18.013Z,1.43
2022-12-12T06:53:45.117Z,1.37
2022-12-12T06:56:17.625Z,1.14
2022-12-12T06:58:44.574Z,1.38
2022-12-12T07:01:12.964Z,1.65
2022-12-12T07:03:39.965Z,1.89
2022-12-12T07:06:07.363Z,2.21
2022-12-12T07:08:34.879Z,2.08
2022-12-12T07:11:11.419Z,1.79
2022-12-12T07:13:38.023Z,1.73
2022-12-12T07:16:05.211Z,1.45
2022-12-12T07:18:31.998Z,1.86
2022-12-12T07:20:58.792Z,1.32
2022-12-12T07:23:25.505Z,1.40
2022-12-12T07:25:52.100Z,1.78
2022-12-12T07:28:18.791Z,2.00
2022-12-12T07:30:47.090Z,2.09
2022-12-12T07:33:15.800Z,2.18
2022-12-12T07:35:43.507Z,2.28
2022-12-12T07:38:11.238Z,2.39
2022-12-12T07:40:37.974Z,2.52
2022-12-12T07:43:04.810Z,2.77
2022-12-12T07:45:31.500Z,2.81
2022-12-12T07:47:58.220Z,3.01
2022-12-12T07:50:25.467Z,2.75
2022-12-12T07:52:52.081Z,2.28
2022-12-12T07:55:18.754Z,2.16
2022-12-12T07:57:45.456Z,2.34
2022-12-12T08:00:12.665Z,2.57
2022-12-12T08:02:39.948Z,2.62
2022-12-12T08:05:07.431Z,2.94
2022-12-12T08:07:34.369Z,3.12
2022-12-12T08:10:01.054Z,3.36
2022-12-12T08:12:31.783Z,3.35
2022-12-12T08:14:58.644Z,3.33
2022-12-12T08:17:25.376Z,3.25
2022-12-12T08:19:52.059Z,3.25
2022-12-12T08:22:19.431Z,2.53
2022-12-12T08:24:49.483Z,2.55
2022-12-12T08:27:16.423Z,3.05
2022-12-12T08:29:44.025Z,3.27
2022-12-12T08:32:10.805Z,3.21
2022-12-12T08:34:37.671Z,3.31
2022-12-12T08:37:04.868Z,2.81
2022-12-12T08:39:31.689Z,2.89
2022-12-12T08:41:58.328Z,2.81
2022-12-12T08:44:24.929Z,2.88
2022-12-12T08:46:51.661Z,3.10
2022-12-12T08:49:18.648Z,2.42
2022-12-12T08:51:45.659Z,2.41
2022-12-12T08:54:13.339Z,2.60
2022-12-12T08:56:40.801Z,2.79
2022-12-12T08:59:07.486Z,2.55
2022-12-12T09:01:34.265Z,2.87
2022-12-12T09:04:01.108Z,2.36
2022-12-12T09:06:27.816Z,2.21
2022-12-12T09:08:56.743Z,2.59
2022-12-12T09:11:24.055Z,3.07
2022-12-12T09:13:50.704Z,2.62
2022-12-12T09:16:17.581Z,2.58
2022-12-12T09:18:48.465Z,1.57
2022-12-12T09:21:16.755Z,1.85
2022-12-12T09:23:43.387Z,2.47
2022-12-12T09:26:10.987Z,2.52
2022-12-12T09:28:37.814Z,2.83
2022-12-12T09:31:06.897Z,2.94
2022-12-12T09:33:33.762Z,3.22
2022-12-12T09:36:03.297Z,3.45
2022-12-12T09:38:30.247Z,3.11
2022-12-12T09:41:12.819Z,2.89
2022-12-12T09:43:57.444Z,2.69
2022-12-12T09:46:31.598Z,2.97
2022-12-12T09:49:19.144Z,3.38
2022-12-12T09:51:50.287Z,3.80
2022-12-12T09:54:24.542Z,3.57
2022-12-12T09:56:57.856Z,3.90
2022-12-12T09:59:46.275Z,4.03
2022-12-12T10:02:48.697Z,4.09
2022-12-12T10:05:18.013Z,3.37
2022-12-12T10:08:01.180Z,3.76
2022-12-12T10:10:41.166Z,3.51
2022-12-12T10:13:16.654Z,3.21
2022-12-12T10:15:52.129Z,3.30
2022-12-12T10:18:33.487Z,2.96
2022-12-12T10:21:06.834Z,3.19
2022-12-12T10:23:47.631Z,3.36
2022-12-12T10:26:31.334Z,2.82
2022-12-12T10:29:18.324Z,3.63
2022-12-12T10:32:08.876Z,3.46
2022-12-12T10:35:01.159Z,3.81
2022-12-12T10:37:59.417Z,3.02
2022-12-12T10:40:49.384Z,3.12
2022-12-12T10:43:27.258Z,2.55
2022-12-12T10:46:02.922Z,2.45
2022-12-12T10:48:29.616Z,3.03
2022-12-12T10:51:03.460Z,3.27
2022-12-12T10:53:32.502Z,3.83
2022-12-12T10:56:05.159Z,4.10
2022-12-12T10:58:41.732Z,4.04
2022-12-12T11:02:00.360Z,2.99
2022-12-12T11:04:17.538Z,2.53
2022-12-12T11:06:54.934Z,2.77
2022-12-12T11:09:25.736Z,2.40
2022-12-12T11:12:10.679Z,3.22
2022-12-12T11:14:40.589Z,2.69
2022-12-12T11:17:21.326Z,2.99
2022-12-12T11:19:48.398Z,3.34
2022-12-12T11:22:16.058Z,3.17
2022-12-12T11:24:47.172Z,3.17
2022-12-12T11:27:22.707Z,3.50
2022-12-12T11:29:58.681Z,2.35
2022-12-12T11:32:37.425Z,2.74
2022-12-12T11:35:22.290Z,3.29
2022-12-12T11:37:54.415Z,3.46
2022-12-12T11:40:31.975Z,3.23
2022-12-12T11:43:22.394Z,3.79
2022-12-12T11:46:15.193Z,2.92
2022-12-12T11:48:55.534Z,3.03
2022-12-12T11:51:38.627Z,2.87
2022-12-12T11:54:29.280Z,2.74
2022-12-12T11:57:03.350Z,2.78
2022-12-12T11:59:54.625Z,3.19
2022-12-12T12:02:58.680Z,3.44
2022-12-12T12:05:37.312Z,3.69
2022-12-12T12:08:13.210Z,3.21
2022-12-12T12:11:02.891Z,3.18
2022-12-12T12:14:09.507Z,2.79
2022-12-12T12:17:05.014Z,2.81
2022-12-12T12:20:02.899Z,2.85
2022-12-12T12:22:44.763Z,2.53
2022-12-12T12:25:30.433Z,3.45
2022-12-12T12:28:35.523Z,3.77
2022-12-12T12:31:23.336Z,3.90
2022-12-12T12:34:25.260Z,2.77
2022-12-12T12:37:00.691Z,2.41
2022-12-12T12:39:52.450Z,3.13
2022-12-12T12:42:50.084Z,2.92
2022-12-12T12:45:28.289Z,2.96
2022-12-12T12:48:10.704Z,3.34
2022-12-12T12:50:48.596Z,3.24
2022-12-12T12:53:44.387Z,3.44
2022-12-12T12:56:43.754Z,4.49
2022-12-12T12:59:20.047Z,4.68
2022-12-12T13:01:52.398Z,4.00
2022-12-12T13:04:47.076Z,4.26
2022-12-12T13:07:42.856Z,3.86
2022-12-12T13:10:22.871Z,3.97
2022-12-12T13:12:59.731Z,3.11
2022-12-12T13:15:35.116Z,3.38
2022-12-12T13:18:11.394Z,3.31
2022-12-12T13:20:55.487Z,3.52
2022-12-12T13:23:40.947Z,3.52
2022-12-12T13:26:31.693Z,3.98
2022-12-12T13:29:24.622Z,3.43
2022-12-12T13:32:17.580Z,3.14
2022-12-12T13:34:49.703Z,3.74
2022-12-12T13:37:20.855Z,3.86
2022-12-12T13:39:59.357Z,3.18
2022-12-12T13:42:26.108Z,3.96
2022-12-12T13:44:52.879Z,3.70
2022-12-12T13:47:22.330Z,3.05
2022-12-12T13:50:04.440Z,2.93
2022-12-12T13:52:42.049Z,3.28
2022-12-12T13:55:11.799Z,2.44
2022-12-12T13:58:00.140Z,2.49
2022-12-12T14:00:30.817Z,2.62
2022-12-12T14:03:02.009Z,3.17
2022-12-12T14:05:43.261Z,2.05
2022-12-12T14:08:10.003Z,1.40
2022-12-12T14:10:36.914Z,0.60
2022-12-12T14:13:21.831Z,0.97
2022-12-12T14:15:59.563Z,0.86
2022-12-12T14:18:34.734Z,1.39
2022-12-12T14:21:12.219Z,0.53
2022-12-12T14:23:42.694Z,0.72
2022-12-12T14:26:28.193Z,0.59
2022-12-12T14:29:17.282Z,0.39
2022-12-12T14:32:10.943Z,0.16
2022-12-12T14:34:52.960Z,0.19
2022-12-12T14:37:34.367Z,0.19
2022-12-12T14:40:25.025Z,0.09
2022-12-12T14:43:20.764Z,0.31
2022-12-12T14:46:00.902Z,0.31
2022-12-12T14:48:28.484Z,0.16
2022-12-12T14:51:29.796Z,0.10
2022-12-12T14:54:00.146Z,-0.41
2022-12-12T14:56:38.279Z,-0.93
2022-12-12T14:59:24.668Z,-0.88
2022-12-12T15:02:20.759Z,-1.50
2022-12-12T15:04:53.135Z,-1.57
2022-12-12T15:07:32.279Z,-1.88
2022-12-12T15:10:00.703Z,-1.80
2022-12-12T15:12:34.672Z,-2.15
2022-12-12T15:15:01.740Z,-2.19
2022-12-12T15:17:51.199Z,-2.49
2022-12-12T15:20:22.932Z,-2.67
2022-12-12T15:22:59.935Z,-2.59
2022-12-12T15:25:31.250Z,-2.69
2022-12-12T15:27:59.019Z,-2.85
2022-12-12T15:30:34.324Z,-2.62
2022-12-12T15:33:03.266Z,-2.79
2022-12-12T15:35:29.970Z,-2.87
2022-12-12T15:38:23.524Z,-2.86
2022-12-12T15:40:53.255Z,-3.14
2022-12-12T15:43:24.149Z,-2.97
2022-12-12T15:45:58.299Z,-2.98
2022-12-12T15:48:25.891Z,-3.00
2022-12-12T15:51:02.004Z,-2.75
2022-12-12T15:53:47.756Z,-3.00
2022-12-12T15:56:27.395Z,-3.37
2022-12-12T15:59:14.356Z,-3.40
2022-12-12T16:01:41.304Z,-3.39
2022-12-12T16:04:13.675Z,-3.36
2022-12-12T16:06:45.971Z,-3.50
2022-12-12T16:09:24.953Z,-3.46
2022-12-12T16:11:59.874Z,-3.42
2022-12-12T16:14:31.388Z,-3.64
2022-12-12T16:17:22.413Z,-3.55
2022-12-12T16:20:00.941Z,-3.72
2022-12-12T16:22:41.033Z,-3.59
2022-12-12T16:25:15.467Z,-3.73
2022-12-12T16:27:42.717Z,-3.66
2022-12-12T16:30:14.934Z,-3.57
2022-12-12T16:32:42.412Z,-3.59
2022-12-12T16:35:21.849Z,-3.78
2022-12-12T16:37:49.084Z,-3.76
2022-12-12T16:40:20.868Z,-3.69
2022-12-12T16:42:59.659Z,-3.72
2022-12-12T16:45:26.665Z,-3.55
2022-12-12T16:47:53.489Z,-3.45
2022-12-12T16:50:20.309Z,-3.69
2022-12-12T16:52:47.068Z,-3.90
2022-12-12T16:55:22.725Z,-3.90
2022-12-12T16:57:49.823Z,-3.67
2022-12-12T17:00:18.534Z,-3.78
2022-12-12T17:02:45.354Z,-3.37
2022-12-12T17:05:24.200Z,-3.74
2022-12-12T17:07:52.959Z,-3.80
2022-12-12T17:10:23.156Z,-3.84
2022-12-12T17:12:50.317Z,-3.97
2022-12-12T17:15:24.572Z,-3.97
2022-12-12T17:17:51.531Z,-4.13
2022-12-12T17:20:18.772Z,-3.98
2022-12-12T17:22:45.706Z,-3.97
2022-12-12T17:25:13.005Z,-3.90
2022-12-12T17:27:42.776Z,-3.88
2022-12-12T17:30:12.080Z,-3.94
2022-12-12T17:32:39.503Z,-4.11
2022-12-12T17:35:07.576Z,-4.03
2022-12-12T17:37:35.105Z,-3.82
2022-12-12T17:40:02.609Z,-4.01
2022-12-12T17:42:31.052Z,-3.81
2022-12-12T17:44:58.005Z,-3.98
2022-12-12T17:47:24.777Z,-4.04
2022-12-12T17:49:51.816Z,-4.07
2022-12-12T17:52:18.514Z,-4.06
2022-12-12T17:55:52.975Z,-4.13
2022-12-12T17:57:32.015Z,-4.13
2022-12-12T17:59:58.704Z,-4.18
2022-12-12T18:02:25.887Z,-4.04
2022-12-12T18:04:52.702Z,-4.08
2022-12-12T18:07:19.823Z,-4.28
2022-12-12T18:09:46.588Z,-4.34
2022-12-12T18:12:13.514Z,-4.26
2022-12-12T18:14:40.217Z,-4.19
2022-12-12T18:17:07.340Z,-4.16
2022-12-12T18:19:34.104Z,-4.26
2022-12-12T18:22:02.023Z,-4.29
2022-12-12T18:24:29.221Z,-4.23
2022-12-12T18:26:59.167Z,-4.27
2022-12-12T18:29:27.221Z,-4.16
2022-12-12T18:31:54.490Z,-4.33
2022-12-12T18:34:21.713Z,-4.09
2022-12-12T18:36:48.705Z,-4.22
2022-12-12T18:39:17.880Z,-4.27
2022-12-12T18:41:47.055Z,-4.34
2022-12-12T18:44:15.230Z,-4.04
2022-12-12T18:46:43.687Z,-4.30
2022-12-12T18:49:14.512Z,-4.19
2022-12-12T18:51:42.239Z,-4.34
2022-12-12T18:54:14.696Z,-4.34
2022-12-12T18:56:47.094Z,-4.22
2022-12-12T18:59:14.754Z,-4.15
2022-12-12T19:01:41.908Z,-4.24
2022-12-12T19:04:13.202Z,-4.14
2022-12-12T19:06:42.921Z,-4.07
2022-12-12T19:09:15.930Z,-4.19
2022-12-12T19:11:44.122Z,-4.15
2022-12-12T19:14:13.496Z,-4.22
2022-12-12T19:16:40.819Z,-4.19
2022-12-12T19:19:07.992Z,-4.14
2022-12-12T19:21:35.564Z,-4.09
2022-12-12T19:24:03.254Z,-4.13
2022-12-12T19:26:30.599Z,-4.07
2022-12-12T19:29:01.577Z,-3.93
2022-12-12T19:31:28.293Z,-4.07
2022-12-12T19:33:56.536Z,-4.09
2022-12-12T19:36:25.712Z,-4.27
2022-12-12T19:38:58.154Z,-4.17
2022-12-12T19:41:25.346Z,-4.07
2022-12-12T19:43:53.673Z,-4.23
2022-12-12T19:46:26.289Z,-4.20
2022-12-12T19:49:00.762Z,-4.29
2022-12-12T19:51:29.309Z,-4.19
2022-12-12T19:53:58.537Z,-4.12
2022-12-12T19:56:32.020Z,-4.26
2022-12-12T19:59:00.251Z,-3.90
2022-12-12T20:01:30.158Z,-4.23
2022-12-12T20:03:59.947Z,-4.19
2022-12-12T20:06:27.684Z,-4.23
2022-12-12T20:08:54.409Z,-4.26
2022-12-12T20:11:23.315Z,-3.95
2022-12-12T20:13:55.385Z,-4.21
2022-12-12T20:16:25.784Z,-4.11
2022-12-12T20:18:53.451Z,-4.34
2022-12-12T20:24:04.700Z,-4.38
2022-12-12T20:26:31.391Z,-4.34
2022-12-12T20:28:59.248Z,-4.47
2022-12-12T20:31:29.771Z,-4.53
2022-12-12T20:33:58.442Z,-4.54
2022-12-12T20:36:31.550Z,-4.30
2022-12-12T20:39:00.484Z,-4.39
2022-12-12T20:41:30.495Z,-4.33
2022-12-12T20:43:59.237Z,-4.47
2022-12-12T20:46:29.390Z,-4.52
2022-12-12T20:48:57.784Z,-4.65
2022-12-12T20:51:54.157Z,-4.39
2022-12-12T20:54:12.798Z,-4.55
2022-12-12T20:56:45.928Z,-4.65
2022-12-12T20:59:12.994Z,-4.64
2022-12-12T21:01:40.236Z,-4.61
2022-12-12T21:04:07.897Z,-4.63
2022-12-12T21:06:41.094Z,-4.62
2022-12-12T21:09:10.458Z,-4.74
2022-12-12T21:11:38.503Z,-4.73
2022-12-12T21:14:06.857Z,-4.79
2022-12-12T21:16:36.673Z,-4.76
2022-12-12T21:19:11.776Z,-4.77
2022-12-12T21:21:39.516Z,-4.72
2022-12-12T21:24:06.693Z,-4.79
2022-12-12T21:26:34.211Z,-4.81
2022-12-12T21:29:01.995Z,-4.75
2022-12-12T21:31:31.563Z,-4.72
2022-12-12T21:33:59.100Z,-4.68
2022-12-12T21:36:27.223Z,-4.74
2022-12-12T21:38:59.315Z,-4.53
2022-12-12T21:41:26.441Z,-4.42
2022-12-12T21:43:56.323Z,-4.51
2022-12-12T21:46:25.412Z,-4.53
2022-12-12T21:48:53.380Z,-4.44
2022-12-12T21:51:20.036Z,-4.45
2022-12-12T21:53:46.649Z,-4.45
2022-12-12T21:56:16.810Z,-4.42
2022-12-12T21:58:46.164Z,-4.51
2022-12-12T22:01:19.275Z,-4.64
2022-12-12T22:03:48.338Z,-4.70
2022-12-12T22:06:24.075Z,-4.76
2022-12-12T22:08:51.921Z,-4.66
2022-12-12T22:11:41.605Z,-4.68
2022-12-12T22:14:07.284Z,-4.63
2022-12-12T22:16:34.659Z,-4.73
2022-12-12T22:19:13.052Z,-4.50
2022-12-12T22:21:39.963Z,-4.68
2022-12-12T22:24:06.981Z,-4.69
2022-12-12T22:26:37.412Z,-4.76
2022-12-12T22:29:07.832Z,-4.75
2022-12-12T22:31:36.870Z,-4.81
2022-12-12T22:34:06.448Z,-4.46
2022-12-12T22:36:36.257Z,-4.66
2022-12-12T22:39:05.040Z,-4.68
2022-12-12T22:41:32.339Z,-4.71
2022-12-12T22:44:01.844Z,-4.59
2022-12-12T22:46:29.499Z,-4.68
2022-12-12T22:48:59.093Z,-4.51
2022-12-12T22:51:33.550Z,-4.72
2022-12-12T22:54:02.970Z,-4.66
2022-12-12T22:56:32.391Z,-4.55
2022-12-12T22:58:59.142Z,-4.60
2022-12-12T23:01:27.405Z,-4.62
2022-12-12T23:03:54.515Z,-4.64
2022-12-12T23:06:34.095Z,-4.63
2022-12-12T23:09:04.128Z,-4.68
2022-12-12T23:11:32.760Z,-4.54
2022-12-12T23:14:02.094Z,-4.62
2022-12-12T23:16:29.195Z,-4.74
2022-12-12T23:18:56.115Z,-4.71
2022-12-12T23:21:24.082Z,-4.64
2022-12-12T23:23:54.453Z,-4.55
2022-12-12T23:26:58.962Z,-4.48
2022-12-12T23:30:03.166Z,-4.53
2022-12-12T23:32:29.814Z,-4.55
2022-12-12T23:34:56.642Z,-4.59
2022-12-12T23:37:24.576Z,-4.66
2022-12-12T23:39:51.190Z,-4.61
2022-12-12T23:42:17.895Z,-4.63
2022-12-12T23:44:44.564Z,-4.62
2022-12-12T23:47:11.168Z,-4.44
2022-12-12T23:49:37.793Z,-4.66
2022-12-12T23:52:04.651Z,-4.63
2022-12-12T23:54:32.337Z,-4.38
2022-12-12T23:57:00.101Z,-4.56
2022-12-12T23:59:27.803Z,-4.71
